Terminal Aerodrome Forecast
Issued by NWS

Home | Current Version | Previous Version | Text Only | Print | Product List | Glossary On
Versions: 1 2 3 4 5 6 7 8 9 10 11 12 13 14 15 16 17 18 19 20 21 22
000
FTUS43 KMKX 292039 AAA
TAFENW
TAF AMD
KENW 292039Z 2921/3018 03013G23KT P6SM VCSH SCT025 OVC035
      TEMPO 2922/3001 -SHRA BKN025
     FM300100 03010G20KT P6SM VCSH SCT018 BKN025
     FM300400 04010KT P6SM VCSH BKN015
     FM300900 04013KT 6SM -SHRA BR OVC008=

USA.gov is the U.S. government's official web portal to all federal, state and local government web resources and services.